Airports Romania Mihail Kogalniceanu International Airport

Mihail Kogalniceanu International Airport (LRCK / CND)

Facts about Mihail Kogalniceanu International Airport

Name Mihail Kogalniceanu International Airport
City Constanta
Country Romania
ICAO code LRCK
IATA code CND
Elevation 107.5944 meters (353 feet)

Weather

METAR

Metar data retrieved Friday, 19 July 2024 at 23:55 UTC (12 minutes ago)

LRCK 192330Z 36010KT CAVOK 26/12 Q1012 NOSIG

Live traffic

Navigraph Charts (account required)